createdAt,value
2022-12-09T00:01:12.676Z,0.90
2022-12-09T00:03:42.865Z,0.60
2022-12-09T00:06:19.842Z,0.60
2022-12-09T00:08:48.455Z,0.60
2022-12-09T00:11:16.990Z,0.60
2022-12-09T00:13:45.353Z,0.70
2022-12-09T00:16:14.841Z,2.20
2022-12-09T00:18:44.916Z,1.50
2022-12-09T00:21:15.172Z,0.70
2022-12-09T00:23:43.383Z,0.70
2022-12-09T00:26:12.089Z,0.80
2022-12-09T00:28:41.040Z,0.80
2022-12-09T00:31:09.818Z,0.80
2022-12-09T00:33:37.839Z,0.80
2022-12-09T00:36:09.725Z,1.10
2022-12-09T00:38:39.816Z,0.80
2022-12-09T00:41:07.974Z,0.80
2022-12-09T00:43:36.383Z,2.00
2022-12-09T00:46:05.368Z,0.90
2022-12-09T00:48:34.309Z,0.80
2022-12-09T00:51:02.916Z,0.80
2022-12-09T00:53:32.442Z,0.80
2022-12-09T00:56:00.788Z,1.20
2022-12-09T00:58:29.123Z,1.30
2022-12-09T01:00:57.900Z,0.80
2022-12-09T01:03:26.700Z,0.80
2022-12-09T01:05:55.076Z,0.80
2022-12-09T01:08:23.227Z,0.80
2022-12-09T01:10:52.697Z,0.90
2022-12-09T01:13:20.672Z,0.90
2022-12-09T01:15:48.931Z,0.90
2022-12-09T01:18:17.304Z,0.90
2022-12-09T01:20:45.517Z,0.80
2022-12-09T01:23:13.782Z,0.80
2022-12-09T01:25:41.784Z,0.90
2022-12-09T01:28:11.326Z,0.90
2022-12-09T01:30:39.615Z,0.90
2022-12-09T01:33:07.664Z,0.90
2022-12-09T01:35:35.977Z,0.90
2022-12-09T01:38:04.005Z,0.90
2022-12-09T01:40:32.060Z,0.90
2022-12-09T01:43:00.225Z,0.90
2022-12-09T01:45:42.331Z,0.90
2022-12-09T01:48:15.167Z,0.90
2022-12-09T01:50:47.508Z,0.90
2022-12-09T01:53:16.736Z,1.40
2022-12-09T01:55:45.751Z,1.70
2022-12-09T01:58:14.929Z,0.80
2022-12-09T02:00:45.330Z,0.90
2022-12-09T02:03:14.482Z,1.10
2022-12-09T02:05:43.306Z,0.80
2022-12-09T02:08:14.271Z,0.80
2022-12-09T02:10:51.285Z,1.30
2022-12-09T02:13:28.611Z,0.80
2022-12-09T02:16:00.435Z,0.80
2022-12-09T02:18:36.791Z,0.90
2022-12-09T02:21:10.698Z,0.90
2022-12-09T02:23:43.120Z,0.80
2022-12-09T02:26:19.630Z,0.80
2022-12-09T02:29:07.421Z,0.80
2022-12-09T02:31:54.856Z,0.80
2022-12-09T02:34:27.745Z,0.80
2022-12-09T02:37:01.759Z,0.90
2022-12-09T02:39:41.464Z,0.90
2022-12-09T02:42:14.224Z,0.90
2022-12-09T02:44:44.550Z,0.90
2022-12-09T02:47:16.699Z,0.90
2022-12-09T02:49:46.662Z,0.90
2022-12-09T02:52:16.221Z,1.70
2022-12-09T02:54:48.224Z,1.50
2022-12-09T02:57:19.975Z,0.90
2022-12-09T02:59:48.142Z,0.80
2022-12-09T03:02:21.784Z,0.80
2022-12-09T03:05:04.475Z,0.80
2022-12-09T03:07:38.103Z,0.90
2022-12-09T03:10:12.819Z,0.80
2022-12-09T03:12:44.021Z,0.90
2022-12-09T03:15:15.801Z,0.90
2022-12-09T03:17:46.238Z,0.80
2022-12-09T03:20:22.641Z,0.90
2022-12-09T03:22:52.627Z,0.80
2022-12-09T03:25:25.534Z,0.80
2022-12-09T03:27:58.376Z,0.80
2022-12-09T03:30:26.768Z,0.90
2022-12-09T03:32:56.963Z,1.90
2022-12-09T03:35:31.797Z,0.90
2022-12-09T03:38:02.193Z,0.90
2022-12-09T03:40:31.812Z,1.10
2022-12-09T03:43:04.095Z,0.80
2022-12-09T03:45:32.437Z,1.60
2022-12-09T03:48:01.342Z,0.90
2022-12-09T03:50:36.728Z,0.90
2022-12-09T03:53:08.244Z,0.90
2022-12-09T03:55:43.317Z,1.60
2022-12-09T03:58:14.616Z,0.80
2022-12-09T04:00:42.956Z,0.80
2022-12-09T04:03:14.699Z,0.80
2022-12-09T04:05:44.172Z,0.80
2022-12-09T04:08:12.871Z,1.20
2022-12-09T04:10:42.272Z,0.80
2022-12-09T04:13:10.521Z,0.80
2022-12-09T04:15:38.571Z,0.70
2022-12-09T04:18:07.184Z,0.70
2022-12-09T04:20:35.224Z,0.80
2022-12-09T04:23:04.811Z,1.30
2022-12-09T04:25:32.854Z,1.60
2022-12-09T04:28:01.158Z,0.70
2022-12-09T04:30:29.183Z,0.80
2022-12-09T04:32:57.190Z,0.80
2022-12-09T04:35:25.145Z,0.80
2022-12-09T04:37:53.417Z,0.80
2022-12-09T04:40:24.259Z,0.80
2022-12-09T04:42:52.804Z,0.70
2022-12-09T04:45:20.716Z,0.70
2022-12-09T04:47:48.711Z,0.70
2022-12-09T04:50:17.204Z,0.70
2022-12-09T04:52:45.563Z,0.70
2022-12-09T04:55:14.227Z,0.70
2022-12-09T04:57:43.718Z,0.70
2022-12-09T05:00:13.737Z,0.70
2022-12-09T05:02:42.305Z,0.70
2022-12-09T05:05:12.167Z,0.70
2022-12-09T05:07:40.653Z,0.60
2022-12-09T05:10:10.118Z,0.60
2022-12-09T05:12:38.825Z,0.60
2022-12-09T05:15:09.735Z,0.60
2022-12-09T05:17:38.003Z,0.60
2022-12-09T05:20:09.577Z,0.60
2022-12-09T05:22:38.005Z,0.60
2022-12-09T05:25:06.887Z,0.70
2022-12-09T05:27:34.974Z,0.70
2022-12-09T05:30:03.400Z,1.20
2022-12-09T05:32:34.238Z,0.60
2022-12-09T05:35:02.771Z,0.60
2022-12-09T05:37:30.792Z,0.50
2022-12-09T05:39:58.788Z,0.50
2022-12-09T05:42:26.970Z,0.50
2022-12-09T05:44:56.382Z,0.50
2022-12-09T05:47:24.823Z,0.50
2022-12-09T05:49:54.284Z,0.60
2022-12-09T05:52:22.858Z,1.20
2022-12-09T05:54:51.191Z,0.60
2022-12-09T05:57:19.262Z,0.60
2022-12-09T05:59:48.124Z,0.60
2022-12-09T06:02:16.807Z,0.60
2022-12-09T06:04:44.933Z,0.60
2022-12-09T06:07:15.080Z,0.60
2022-12-09T06:09:44.357Z,0.60
2022-12-09T06:12:12.462Z,0.60
2022-12-09T06:14:40.507Z,0.60
2022-12-09T06:17:08.942Z,0.60
2022-12-09T06:19:37.053Z,1.30
2022-12-09T06:22:05.557Z,0.50
2022-12-09T06:24:36.021Z,0.60
2022-12-09T06:27:04.648Z,0.60
2022-12-09T06:29:33.160Z,0.60
2022-12-09T06:32:01.231Z,0.90
2022-12-09T06:34:30.570Z,0.60
2022-12-09T06:36:58.848Z,1.10
2022-12-09T06:39:26.795Z,0.60
2022-12-09T06:41:56.545Z,1.50
2022-12-09T06:44:25.743Z,0.60
2022-12-09T06:46:53.847Z,0.50
2022-12-09T06:49:22.293Z,0.50
2022-12-09T06:51:50.652Z,0.50
2022-12-09T06:54:19.288Z,0.50
2022-12-09T06:56:47.318Z,0.50
2022-12-09T06:59:16.842Z,0.50
2022-12-09T07:01:45.796Z,0.50
2022-12-09T07:04:15.813Z,0.50
2022-12-09T07:06:45.939Z,0.50
2022-12-09T07:09:16.658Z,0.50
2022-12-09T07:11:47.101Z,0.50
2022-12-09T07:14:20.110Z,0.40
2022-12-09T07:16:48.633Z,0.50
2022-12-09T07:19:19.085Z,0.40
2022-12-09T07:21:47.873Z,0.40
2022-12-09T07:24:16.699Z,0.50
2022-12-09T07:26:45.220Z,0.50
2022-12-09T07:29:13.444Z,0.50
2022-12-09T07:31:43.058Z,0.50
2022-12-09T07:34:12.760Z,0.40
2022-12-09T07:36:41.385Z,0.50
2022-12-09T07:39:13.364Z,0.40
2022-12-09T07:41:42.138Z,0.40
2022-12-09T07:44:11.253Z,0.30
2022-12-09T07:46:40.924Z,0.30
2022-12-09T07:49:11.895Z,0.30
2022-12-09T07:51:40.224Z,0.30
2022-12-09T07:54:08.699Z,0.20
2022-12-09T07:56:36.676Z,0.60
2022-12-09T07:59:07.774Z,0.20
2022-12-09T08:01:37.131Z,0.20
2022-12-09T08:04:07.329Z,0.20
2022-12-09T08:06:37.884Z,0.20
2022-12-09T08:09:11.288Z,0.20
2022-12-09T08:11:39.698Z,1.00
2022-12-09T08:14:12.570Z,0.10
2022-12-09T08:16:42.084Z,0.10
2022-12-09T08:19:11.213Z,0.10
2022-12-09T08:21:40.819Z,0.10
2022-12-09T08:24:09.571Z,0.10
2022-12-09T08:26:39.389Z,0.60
2022-12-09T08:29:11.294Z,0.10
2022-12-09T08:31:42.391Z,0.10
2022-12-09T08:34:11.148Z,0.10
2022-12-09T08:36:40.856Z,0.10
2022-12-09T08:39:09.338Z,0.10
2022-12-09T08:41:39.361Z,0.10
2022-12-09T08:44:10.481Z,0.10
2022-12-09T08:46:40.976Z,1.30
2022-12-09T08:49:10.038Z,0.10
2022-12-09T08:51:38.908Z,0.20
2022-12-09T08:54:08.494Z,0.20
2022-12-09T08:56:36.891Z,0.30
2022-12-09T08:59:05.489Z,0.30
2022-12-09T09:01:35.642Z,0.30
2022-12-09T09:04:08.096Z,0.30
2022-12-09T09:06:37.409Z,0.30
2022-12-09T09:09:06.882Z,0.40
2022-12-09T09:11:36.898Z,0.40
2022-12-09T09:14:07.684Z,0.50
2022-12-09T09:16:36.676Z,0.50
2022-12-09T09:19:05.933Z,0.50
2022-12-09T09:21:35.851Z,0.50
2022-12-09T09:24:08.676Z,0.50
2022-12-09T09:26:41.479Z,0.60
2022-12-09T09:29:11.834Z,0.60
2022-12-09T09:31:40.876Z,0.60
2022-12-09T09:34:09.220Z,0.70
2022-12-09T09:36:37.722Z,1.60
2022-12-09T09:39:06.113Z,0.80
2022-12-09T09:41:45.338Z,0.80
2022-12-09T09:44:22.507Z,0.90
2022-12-09T09:46:52.702Z,1.00
2022-12-09T09:49:34.826Z,1.00
2022-12-09T09:52:07.324Z,1.00
2022-12-09T09:54:36.322Z,2.00
2022-12-09T09:57:13.987Z,1.00
2022-12-09T09:59:52.324Z,1.10
2022-12-09T10:02:30.973Z,1.10
2022-12-09T10:05:06.970Z,1.20
2022-12-09T10:07:41.316Z,1.20
2022-12-09T10:10:20.697Z,1.20
2022-12-09T10:13:08.100Z,1.40
2022-12-09T10:15:43.045Z,1.30
2022-12-09T10:18:19.164Z,1.30
2022-12-09T10:20:47.755Z,1.30
2022-12-09T10:23:18.136Z,1.40
2022-12-09T10:25:49.228Z,1.40
2022-12-09T10:28:23.135Z,1.50
2022-12-09T10:30:55.801Z,1.50
2022-12-09T10:33:29.649Z,1.50
2022-12-09T10:35:58.519Z,2.50
2022-12-09T10:38:27.527Z,1.60
2022-12-09T10:41:02.926Z,1.70
2022-12-09T10:43:38.661Z,1.70
2022-12-09T10:46:19.629Z,1.80
2022-12-09T10:48:55.971Z,2.80
2022-12-09T10:51:26.836Z,1.80
2022-12-09T10:53:58.748Z,2.70
2022-12-09T10:56:30.807Z,1.90
2022-12-09T10:59:18.840Z,2.30
2022-12-09T11:01:51.585Z,2.50
2022-12-09T11:04:25.235Z,1.90
2022-12-09T11:06:59.473Z,1.90
2022-12-09T11:09:30.995Z,1.90
2022-12-09T11:12:00.150Z,2.60
2022-12-09T11:14:34.913Z,2.00
2022-12-09T11:17:16.502Z,2.50
2022-12-09T11:19:47.232Z,2.10
2022-12-09T11:22:39.436Z,2.20
2022-12-09T11:25:23.810Z,2.20
2022-12-09T11:27:55.303Z,2.40
2022-12-09T11:30:27.377Z,2.40
2022-12-09T11:33:04.366Z,3.50
2022-12-09T11:35:38.215Z,2.60
2022-12-09T11:38:22.789Z,2.70
2022-12-09T11:41:05.073Z,2.70
2022-12-09T11:43:37.505Z,2.80
2022-12-09T11:46:18.817Z,2.80
2022-12-09T11:48:52.080Z,2.90
2022-12-09T11:51:24.199Z,3.60
2022-12-09T11:54:01.673Z,2.90
2022-12-09T11:56:32.111Z,3.10
2022-12-09T11:59:04.238Z,2.90
2022-12-09T12:01:48.237Z,2.90
2022-12-09T12:04:19.619Z,3.10
2022-12-09T12:06:50.235Z,3.10
2022-12-09T12:09:24.517Z,3.10
2022-12-09T12:12:02.153Z,3.10
2022-12-09T12:14:31.728Z,3.20
2022-12-09T12:17:08.471Z,3.20
2022-12-09T12:19:40.293Z,3.20
2022-12-09T12:22:36.826Z,3.30
2022-12-09T12:25:26.624Z,3.30
2022-12-09T12:28:24.763Z,3.40
2022-12-09T12:31:02.968Z,3.50
2022-12-09T12:36:50.234Z,3.60
2022-12-09T12:39:34.194Z,3.60
2022-12-09T12:42:15.893Z,3.60
2022-12-09T12:45:09.688Z,3.60
2022-12-09T12:47:48.055Z,3.70
2022-12-09T12:50:31.658Z,3.70
2022-12-09T12:53:06.665Z,3.70
2022-12-09T12:55:47.119Z,3.60
2022-12-09T12:58:25.242Z,3.80
2022-12-09T13:01:01.198Z,4.30
2022-12-09T13:03:39.683Z,3.80
2022-12-09T13:06:12.274Z,4.60
2022-12-09T13:08:44.894Z,3.80
2022-12-09T13:11:17.969Z,3.90
2022-12-09T13:13:50.021Z,3.80
2022-12-09T13:16:24.385Z,3.90
2022-12-09T13:18:53.041Z,3.90
2022-12-09T13:21:22.995Z,3.90
2022-12-09T13:24:03.083Z,3.90
2022-12-09T13:26:44.075Z,4.00
2022-12-09T13:29:25.960Z,3.90
2022-12-09T13:32:02.997Z,4.20
2022-12-09T13:34:38.518Z,3.90
2022-12-09T13:37:55.701Z,4.40
2022-12-09T13:40:36.591Z,3.80
2022-12-09T13:43:17.687Z,4.10
2022-12-09T13:45:52.847Z,3.70
2022-12-09T13:48:44.717Z,3.80
2022-12-09T13:51:13.623Z,3.60
2022-12-09T13:53:49.532Z,4.40
2022-12-09T13:56:26.921Z,3.70
2022-12-09T13:59:29.670Z,3.60
2022-12-09T14:02:02.480Z,3.60
2022-12-09T14:04:32.982Z,3.60
2022-12-09T14:07:10.528Z,4.50
2022-12-09T14:09:46.736Z,3.50
2022-12-09T14:12:54.808Z,3.50
2022-12-09T14:15:41.049Z,3.50
2022-12-09T14:18:33.217Z,3.50
2022-12-09T14:21:28.028Z,3.40
2022-12-09T14:24:29.334Z,3.30
2022-12-09T14:27:14.648Z,3.30
2022-12-09T14:29:48.695Z,3.20
2022-12-09T14:32:25.874Z,3.70
2022-12-09T14:35:07.916Z,3.20
2022-12-09T14:37:46.708Z,3.20
2022-12-09T14:40:35.922Z,3.10
2022-12-09T14:43:14.597Z,3.10
2022-12-09T14:45:49.710Z,3.60
2022-12-09T14:48:23.939Z,3.70
2022-12-09T14:51:15.688Z,3.00
2022-12-09T14:53:44.464Z,3.90
2022-12-09T14:56:18.382Z,3.60
2022-12-09T14:58:50.349Z,2.90
2022-12-09T15:01:19.195Z,3.00
2022-12-09T15:03:54.904Z,2.90
2022-12-09T15:06:26.617Z,2.80
2022-12-09T15:08:59.621Z,2.80
2022-12-09T15:11:31.316Z,3.50
2022-12-09T15:14:22.514Z,2.80
2022-12-09T15:16:51.476Z,2.80
2022-12-09T15:19:58.042Z,2.70
2022-12-09T15:22:22.884Z,2.70
2022-12-09T15:24:51.546Z,2.60
2022-12-09T15:27:22.152Z,2.60
2022-12-09T15:29:50.599Z,2.80
2022-12-09T15:32:25.677Z,2.40
2022-12-09T15:34:55.386Z,2.40
2022-12-09T15:37:27.403Z,2.30
2022-12-09T15:40:01.313Z,2.50
2022-12-09T15:42:38.198Z,2.20
2022-12-09T15:45:11.723Z,2.30
2022-12-09T15:47:42.183Z,2.10
2022-12-09T15:50:18.317Z,3.00
2022-12-09T15:52:52.032Z,2.50
2022-12-09T15:55:24.271Z,2.00
2022-12-09T15:57:54.584Z,1.90
2022-12-09T16:00:22.726Z,1.90
2022-12-09T16:02:51.671Z,1.80
2022-12-09T16:05:26.071Z,1.90
2022-12-09T16:07:56.683Z,1.70
2022-12-09T16:10:27.074Z,1.70
2022-12-09T16:13:09.847Z,1.70
2022-12-09T16:15:43.775Z,1.60
2022-12-09T16:18:17.770Z,1.60
2022-12-09T16:21:15.031Z,1.50
2022-12-09T16:23:44.182Z,1.50
2022-12-09T16:26:21.459Z,1.40
2022-12-09T16:28:56.576Z,1.40
2022-12-09T16:31:24.756Z,1.40
2022-12-09T16:33:53.114Z,1.30
2022-12-09T16:36:26.706Z,1.30
2022-12-09T16:39:22.034Z,1.50
2022-12-09T16:41:58.634Z,1.40
2022-12-09T16:44:31.890Z,1.10
2022-12-09T16:47:14.357Z,1.70
2022-12-09T16:49:42.703Z,1.10
2022-12-09T16:52:16.773Z,1.00
2022-12-09T16:54:46.686Z,1.00
2022-12-09T16:57:15.936Z,1.00
2022-12-09T16:59:44.807Z,0.90
2022-12-09T17:02:20.005Z,1.20
2022-12-09T17:04:49.406Z,0.90
2022-12-09T17:07:18.792Z,0.80
2022-12-09T17:09:47.082Z,0.90
2022-12-09T17:12:15.171Z,0.80
2022-12-09T17:14:44.576Z,0.80
2022-12-09T17:17:12.823Z,1.40
2022-12-09T17:19:41.976Z,0.70
2022-12-09T17:22:10.302Z,0.90
2022-12-09T17:24:39.871Z,0.70
2022-12-09T17:27:07.907Z,0.60
2022-12-09T17:29:36.828Z,1.10
2022-12-09T17:32:05.270Z,0.60
2022-12-09T17:34:33.475Z,0.50
2022-12-09T17:37:01.435Z,0.50
2022-12-09T17:39:29.391Z,0.50
2022-12-09T17:41:58.777Z,0.90
2022-12-09T17:44:26.803Z,0.40
2022-12-09T17:46:55.012Z,1.10
2022-12-09T17:49:23.184Z,0.40
2022-12-09T17:51:51.247Z,0.40
2022-12-09T17:54:19.235Z,0.30
2022-12-09T17:56:47.339Z,0.30
2022-12-09T17:59:18.457Z,0.30
2022-12-09T18:01:47.219Z,0.40
2022-12-09T18:04:16.027Z,0.30
2022-12-09T18:06:45.806Z,0.90
2022-12-09T18:09:16.440Z,0.30
2022-12-09T18:11:45.360Z,0.30
2022-12-09T18:14:13.613Z,0.30
2022-12-09T18:16:43.389Z,0.30
2022-12-09T18:19:15.202Z,0.80
2022-12-09T18:21:43.308Z,1.20
2022-12-09T18:24:11.561Z,1.30
2022-12-09T18:26:42.040Z,0.20
2022-12-09T18:29:11.180Z,0.20
2022-12-09T18:31:39.586Z,0.10
2022-12-09T18:34:09.111Z,1.40
2022-12-09T18:36:37.036Z,0.70
2022-12-09T18:39:05.689Z,0.10
2022-12-09T18:41:34.349Z,0.10
2022-12-09T18:44:04.959Z,0.20
2022-12-09T18:46:35.055Z,0.10
2022-12-09T18:49:06.286Z,0.10
2022-12-09T18:51:36.805Z,0.30
2022-12-09T18:54:05.988Z,0.30
2022-12-09T18:56:34.796Z,0.30
2022-12-09T18:59:07.394Z,0.40
2022-12-09T19:01:39.649Z,0.40
2022-12-09T19:04:09.738Z,1.50
2022-12-09T19:06:41.123Z,0.50
2022-12-09T19:09:11.577Z,0.80
2022-12-09T19:11:41.234Z,0.60
2022-12-09T19:14:12.048Z,0.60
2022-12-09T19:16:39.999Z,0.60
2022-12-09T19:19:10.371Z,0.60
2022-12-09T19:21:40.373Z,0.60
2022-12-09T19:24:09.417Z,1.40
2022-12-09T19:26:37.897Z,0.50
2022-12-09T19:29:07.903Z,0.50
2022-12-09T19:31:39.092Z,0.50
2022-12-09T19:34:09.043Z,0.40
2022-12-09T19:36:36.984Z,0.40
2022-12-09T19:39:11.108Z,0.40
2022-12-09T19:41:40.351Z,0.40
2022-12-09T19:44:09.073Z,0.40
2022-12-09T19:46:38.439Z,0.70
2022-12-09T19:49:06.764Z,0.30
2022-12-09T19:51:34.948Z,0.30
2022-12-09T19:54:03.424Z,0.30
2022-12-09T19:56:32.930Z,0.30
2022-12-09T19:59:01.344Z,0.20
2022-12-09T20:01:31.647Z,0.20
2022-12-09T20:04:19.172Z,0.20
2022-12-09T20:06:51.608Z,0.20
2022-12-09T20:09:24.348Z,0.90
2022-12-09T20:11:54.156Z,1.20
2022-12-09T20:14:22.111Z,0.90
2022-12-09T20:16:50.096Z,0.90
2022-12-09T20:19:19.688Z,0.10
2022-12-09T20:21:47.660Z,0.10
2022-12-09T20:24:15.679Z,0.40
2022-12-09T20:26:44.250Z,0.10
2022-12-09T20:29:13.726Z,1.10
2022-12-09T20:31:43.524Z,0.10
2022-12-09T20:34:14.335Z,0.10
2022-12-09T20:36:44.923Z,1.30
2022-12-09T20:39:15.072Z,0.20
2022-12-09T20:41:44.481Z,0.20
2022-12-09T20:44:16.467Z,0.20
2022-12-09T20:46:47.224Z,0.20
2022-12-09T20:49:15.322Z,1.00
2022-12-09T20:51:45.218Z,0.30
2022-12-09T20:54:14.077Z,0.30
2022-12-09T20:56:42.124Z,0.30
2022-12-09T20:59:11.300Z,0.30
2022-12-09T21:01:40.819Z,0.30
2022-12-09T21:04:09.078Z,0.30
2022-12-09T21:06:39.220Z,0.30
2022-12-09T21:09:09.229Z,0.30
2022-12-09T21:11:37.409Z,0.30
2022-12-09T21:14:07.336Z,0.30
2022-12-09T21:16:39.664Z,1.00
2022-12-09T21:19:12.741Z,0.40
2022-12-09T21:21:42.525Z,0.40
2022-12-09T21:24:13.476Z,0.40
2022-12-09T21:26:42.072Z,0.40
2022-12-09T21:29:11.880Z,0.40
2022-12-09T21:31:41.840Z,0.40
2022-12-09T21:34:11.872Z,0.40
2022-12-09T21:36:42.333Z,0.40
2022-12-09T21:39:13.560Z,0.40
2022-12-09T21:41:42.391Z,0.40
2022-12-09T21:44:14.904Z,0.40
2022-12-09T21:46:43.273Z,0.40
2022-12-09T21:49:12.836Z,0.40
2022-12-09T21:51:40.855Z,0.40
2022-12-09T21:54:08.797Z,-0.10
2022-12-09T21:56:37.128Z,0.40
2022-12-09T21:59:08.380Z,0.40
2022-12-09T22:01:38.587Z,0.40
2022-12-09T22:04:08.201Z,0.40
2022-12-09T22:06:37.815Z,0.40
2022-12-09T22:09:08.170Z,1.10
2022-12-09T22:11:38.487Z,0.40
2022-12-09T22:14:08.022Z,0.40
2022-12-09T22:16:39.401Z,1.10
2022-12-09T22:19:09.240Z,0.30
2022-12-09T22:21:38.627Z,0.40
2022-12-09T22:24:09.515Z,0.30
2022-12-09T22:26:37.911Z,0.30
2022-12-09T22:29:07.962Z,0.40
2022-12-09T22:31:38.291Z,0.30
2022-12-09T22:34:08.657Z,0.40
2022-12-09T22:36:38.149Z,0.30
2022-12-09T22:39:07.699Z,0.30
2022-12-09T22:41:36.037Z,0.30
2022-12-09T22:44:05.008Z,0.30
2022-12-09T22:46:36.162Z,0.30
2022-12-09T22:49:06.668Z,1.00
2022-12-09T22:51:36.993Z,0.30
2022-12-09T22:54:08.297Z,0.30
2022-12-09T22:56:38.064Z,0.30
2022-12-09T22:59:06.372Z,0.40
2022-12-09T23:01:37.249Z,0.40
2022-12-09T23:04:06.813Z,0.30
2022-12-09T23:06:36.164Z,0.40
2022-12-09T23:09:04.328Z,0.30
2022-12-09T23:11:34.199Z,0.40
2022-12-09T23:14:03.014Z,0.30
2022-12-09T23:16:31.041Z,0.40
2022-12-09T23:19:00.140Z,0.30
2022-12-09T23:21:30.179Z,0.40
2022-12-09T23:24:00.077Z,0.40
2022-12-09T23:26:30.609Z,0.40
2022-12-09T23:29:01.651Z,0.40
2022-12-09T23:31:31.981Z,0.40
2022-12-09T23:34:01.189Z,0.40
2022-12-09T23:36:31.638Z,0.40
2022-12-09T23:39:00.432Z,0.40
2022-12-09T23:41:29.234Z,0.50
2022-12-09T23:43:58.915Z,0.80
2022-12-09T23:46:28.821Z,0.40
2022-12-09T23:48:57.602Z,0.60
2022-12-09T23:51:27.632Z,0.40
2022-12-09T23:53:57.444Z,0.40
2022-12-09T23:56:27.227Z,0.40
2022-12-09T23:58:56.426Z,0.40
